sensor_id;sensor_type;location;lat;lon;timestamp;temperature;humidity
81867;DHT22;71318;-36.550;-64.300;2023-08-06T00:00:53;10.80;61.20
81867;DHT22;71318;-36.550;-64.300;2023-08-06T00:03:20;11.30;59.70
81867;DHT22;71318;-36.550;-64.300;2023-08-06T00:05:46;11.80;58.60
81867;DHT22;71318;-36.550;-64.300;2023-08-06T00:08:12;12.20;57.30
81867;DHT22;71318;-36.550;-64.300;2023-08-06T00:10:39;12.30;56.70
81867;DHT22;71318;-36.550;-64.300;2023-08-06T00:13:06;12.30;56.30
81867;DHT22;71318;-36.550;-64.300;2023-08-06T00:15:33;12.30;56.40
81867;DHT22;71318;-36.550;-64.300;2023-08-06T00:17:59;12.00;56.80
81867;DHT22;71318;-36.550;-64.300;2023-08-06T00:20:25;12.00;57.10
81867;DHT22;71318;-36.550;-64.300;2023-08-06T00:22:52;12.00;57.00
81867;DHT22;71318;-36.550;-64.300;2023-08-06T00:25:18;11.90;57.10
81867;DHT22;71318;-36.550;-64.300;2023-08-06T00:27:45;11.70;57.90
81867;DHT22;71318;-36.550;-64.300;2023-08-06T00:30:11;11.40;58.30
81867;DHT22;71318;-36.550;-64.300;2023-08-06T00:32:38;11.10;58.70
81867;DHT22;71318;-36.550;-64.300;2023-08-06T00:35:04;10.90;59.10
81867;DHT22;71318;-36.550;-64.300;2023-08-06T00:37:31;10.80;59.50
81867;DHT22;71318;-36.550;-64.300;2023-08-06T00:39:57;10.90;59.60
81867;DHT22;71318;-36.550;-64.300;2023-08-06T00:42:24;11.10;59.00
81867;DHT22;71318;-36.550;-64.300;2023-08-06T00:44:50;11.40;58.30
81867;DHT22;71318;-36.550;-64.300;2023-08-06T00:47:16;11.60;57.60
81867;DHT22;71318;-36.550;-64.300;2023-08-06T00:49:43;11.60;57.50
81867;DHT22;71318;-36.550;-64.300;2023-08-06T00:52:09;11.40;57.80
81867;DHT22;71318;-36.550;-64.300;2023-08-06T00:54:36;11.30;57.80
81867;DHT22;71318;-36.550;-64.300;2023-08-06T00:57:03;11.40;57.60
81867;DHT22;71318;-36.550;-64.300;2023-08-06T00:59:29;11.50;57.10
81867;DHT22;71318;-36.550;-64.300;2023-08-06T01:01:57;11.80;56.30
81867;DHT22;71318;-36.550;-64.300;2023-08-06T01:04:23;12.00;55.20
81867;DHT22;71318;-36.550;-64.300;2023-08-06T01:07:01;12.20;54.50
81867;DHT22;71318;-36.550;-64.300;2023-08-06T01:15:17;12.20;54.10
81867;DHT22;71318;-36.550;-64.300;2023-08-06T01:17:45;12.10;54.30
81867;DHT22;71318;-36.550;-64.300;2023-08-06T01:20:12;12.10;54.30
81867;DHT22;71318;-36.550;-64.300;2023-08-06T01:22:38;12.10;54.30
81867;DHT22;71318;-36.550;-64.300;2023-08-06T01:25:05;11.90;54.10
81867;DHT22;71318;-36.550;-64.300;2023-08-06T01:27:48;11.60;54.70
81867;DHT22;71318;-36.550;-64.300;2023-08-06T01:30:20;11.10;55.80
81867;DHT22;71318;-36.550;-64.300;2023-08-06T01:32:49;10.60;57.10
81867;DHT22;71318;-36.550;-64.300;2023-08-06T01:35:17;10.40;58.00
81867;DHT22;71318;-36.550;-64.300;2023-08-06T01:37:45;10.30;58.40
81867;DHT22;71318;-36.550;-64.300;2023-08-06T01:40:12;10.40;58.40
81867;DHT22;71318;-36.550;-64.300;2023-08-06T01:42:39;10.30;58.40
81867;DHT22;71318;-36.550;-64.300;2023-08-06T01:45:06;10.30;58.50
81867;DHT22;71318;-36.550;-64.300;2023-08-06T01:47:33;10.30;58.40
81867;DHT22;71318;-36.550;-64.300;2023-08-06T01:49:59;10.20;58.40
81867;DHT22;71318;-36.550;-64.300;2023-08-06T01:52:26;10.20;58.40
81867;DHT22;71318;-36.550;-64.300;2023-08-06T01:54:53;10.10;58.70
81867;DHT22;71318;-36.550;-64.300;2023-08-06T01:57:19;10.10;59.00
81867;DHT22;71318;-36.550;-64.300;2023-08-06T01:59:45;10.20;58.80
81867;DHT22;71318;-36.550;-64.300;2023-08-06T02:02:12;10.30;58.20
81867;DHT22;71318;-36.550;-64.300;2023-08-06T02:04:38;10.30;57.70
81867;DHT22;71318;-36.550;-64.300;2023-08-06T02:07:05;10.30;57.40
81867;DHT22;71318;-36.550;-64.300;2023-08-06T02:09:31;10.30;57.10
81867;DHT22;71318;-36.550;-64.300;2023-08-06T02:11:57;10.30;57.00
81867;DHT22;71318;-36.550;-64.300;2023-08-06T02:14:24;10.20;57.30
81867;DHT22;71318;-36.550;-64.300;2023-08-06T02:16:50;10.10;57.80
81867;DHT22;71318;-36.550;-64.300;2023-08-06T02:19:17;10.00;58.20
81867;DHT22;71318;-36.550;-64.300;2023-08-06T02:21:43;9.90;58.60
81867;DHT22;71318;-36.550;-64.300;2023-08-06T02:24:09;9.70;59.30
81867;DHT22;71318;-36.550;-64.300;2023-08-06T02:26:36;9.50;60.10
81867;DHT22;71318;-36.550;-64.300;2023-08-06T02:29:02;9.40;60.70
81867;DHT22;71318;-36.550;-64.300;2023-08-06T02:31:28;9.30;60.80
81867;DHT22;71318;-36.550;-64.300;2023-08-06T02:33:55;9.20;61.30
81867;DHT22;71318;-36.550;-64.300;2023-08-06T02:36:21;9.10;61.70
81867;DHT22;71318;-36.550;-64.300;2023-08-06T02:38:48;9.00;62.20
81867;DHT22;71318;-36.550;-64.300;2023-08-06T02:41:14;8.80;62.80
81867;DHT22;71318;-36.550;-64.300;2023-08-06T02:43:40;8.70;63.20
81867;DHT22;71318;-36.550;-64.300;2023-08-06T02:46:07;8.60;63.50
81867;DHT22;71318;-36.550;-64.300;2023-08-06T02:48:33;8.50;63.70
81867;DHT22;71318;-36.550;-64.300;2023-08-06T02:50:59;8.40;64.00
81867;DHT22;71318;-36.550;-64.300;2023-08-06T02:53:26;8.30;64.10
81867;DHT22;71318;-36.550;-64.300;2023-08-06T02:55:52;8.30;63.70
81867;DHT22;71318;-36.550;-64.300;2023-08-06T02:58:19;8.60;62.50
81867;DHT22;71318;-36.550;-64.300;2023-08-06T03:00:58;8.80;61.70
81867;DHT22;71318;-36.550;-64.300;2023-08-06T03:03:25;8.80;61.20
81867;DHT22;71318;-36.550;-64.300;2023-08-06T03:05:52;8.80;61.10
81867;DHT22;71318;-36.550;-64.300;2023-08-06T03:08:18;8.70;61.00
81867;DHT22;71318;-36.550;-64.300;2023-08-06T03:10:48;8.60;61.40
81867;DHT22;71318;-36.550;-64.300;2023-08-06T03:13:15;8.40;61.20
81867;DHT22;71318;-36.550;-64.300;2023-08-06T03:15:42;8.50;60.50
81867;DHT22;71318;-36.550;-64.300;2023-08-06T03:18:08;8.60;59.60
81867;DHT22;71318;-36.550;-64.300;2023-08-06T03:20:35;8.70;59.50
81867;DHT22;71318;-36.550;-64.300;2023-08-06T03:23:01;8.60;59.30
81867;DHT22;71318;-36.550;-64.300;2023-08-06T03:25:28;8.40;59.90
81867;DHT22;71318;-36.550;-64.300;2023-08-06T03:27:54;8.30;60.30
81867;DHT22;71318;-36.550;-64.300;2023-08-06T03:30:20;8.30;60.40
81867;DHT22;71318;-36.550;-64.300;2023-08-06T03:32:47;8.20;60.30
81867;DHT22;71318;-36.550;-64.300;2023-08-06T03:35:13;8.20;60.30
81867;DHT22;71318;-36.550;-64.300;2023-08-06T03:37:39;8.30;59.80
81867;DHT22;71318;-36.550;-64.300;2023-08-06T03:40:06;8.30;59.50
81867;DHT22;71318;-36.550;-64.300;2023-08-06T03:42:32;8.30;59.30
81867;DHT22;71318;-36.550;-64.300;2023-08-06T03:44:59;8.20;59.50
81867;DHT22;71318;-36.550;-64.300;2023-08-06T03:47:25;8.10;60.10
81867;DHT22;71318;-36.550;-64.300;2023-08-06T03:49:51;7.80;61.50
81867;DHT22;71318;-36.550;-64.300;2023-08-06T03:52:18;7.40;62.70
81867;DHT22;71318;-36.550;-64.300;2023-08-06T03:54:44;7.40;63.30
81867;DHT22;71318;-36.550;-64.300;2023-08-06T03:57:11;7.40;62.90
81867;DHT22;71318;-36.550;-64.300;2023-08-06T03:59:37;7.40;63.00
81867;DHT22;71318;-36.550;-64.300;2023-08-06T04:02:03;7.30;63.20
81867;DHT22;71318;-36.550;-64.300;2023-08-06T04:04:30;7.30;63.40
81867;DHT22;71318;-36.550;-64.300;2023-08-06T04:06:56;6.80;65.10
81867;DHT22;71318;-36.550;-64.300;2023-08-06T04:09:23;6.60;66.20
81867;DHT22;71318;-36.550;-64.300;2023-08-06T04:11:49;6.60;66.10
81867;DHT22;71318;-36.550;-64.300;2023-08-06T04:14:15;6.70;65.60
81867;DHT22;71318;-36.550;-64.300;2023-08-06T04:16:42;6.70;65.60
81867;DHT22;71318;-36.550;-64.300;2023-08-06T04:19:08;6.60;65.50
81867;DHT22;71318;-36.550;-64.300;2023-08-06T04:21:35;6.70;65.20
81867;DHT22;71318;-36.550;-64.300;2023-08-06T04:24:01;6.60;65.50
81867;DHT22;71318;-36.550;-64.300;2023-08-06T04:26:28;6.40;66.10
81867;DHT22;71318;-36.550;-64.300;2023-08-06T04:28:54;6.40;66.00
81867;DHT22;71318;-36.550;-64.300;2023-08-06T04:31:21;6.60;64.50
81867;DHT22;71318;-36.550;-64.300;2023-08-06T04:33:47;6.90;63.50
81867;DHT22;71318;-36.550;-64.300;2023-08-06T04:36:14;6.80;63.90
81867;DHT22;71318;-36.550;-64.300;2023-08-06T04:38:40;6.70;63.50
81867;DHT22;71318;-36.550;-64.300;2023-08-06T04:41:10;6.80;63.00
81867;DHT22;71318;-36.550;-64.300;2023-08-06T04:43:37;6.90;61.90
81867;DHT22;71318;-36.550;-64.300;2023-08-06T04:46:03;6.90;61.70
81867;DHT22;71318;-36.550;-64.300;2023-08-06T04:48:29;6.90;61.80
81867;DHT22;71318;-36.550;-64.300;2023-08-06T04:50:56;7.10;61.30
81867;DHT22;71318;-36.550;-64.300;2023-08-06T04:53:22;7.10;60.50
81867;DHT22;71318;-36.550;-64.300;2023-08-06T04:55:49;7.30;59.80
81867;DHT22;71318;-36.550;-64.300;2023-08-06T04:58:15;7.50;58.60
81867;DHT22;71318;-36.550;-64.300;2023-08-06T05:00:41;7.60;57.80
81867;DHT22;71318;-36.550;-64.300;2023-08-06T05:03:08;7.80;57.40
81867;DHT22;71318;-36.550;-64.300;2023-08-06T05:05:34;7.80;57.20
81867;DHT22;71318;-36.550;-64.300;2023-08-06T05:08:00;7.90;56.40
81867;DHT22;71318;-36.550;-64.300;2023-08-06T05:10:27;7.90;56.50
81867;DHT22;71318;-36.550;-64.300;2023-08-06T05:12:54;7.90;56.30
81867;DHT22;71318;-36.550;-64.300;2023-08-06T05:15:20;7.80;56.20
81867;DHT22;71318;-36.550;-64.300;2023-08-06T05:17:47;7.80;56.10
81867;DHT22;71318;-36.550;-64.300;2023-08-06T05:20:13;7.60;56.60
81867;DHT22;71318;-36.550;-64.300;2023-08-06T05:22:40;7.40;57.60
81867;DHT22;71318;-36.550;-64.300;2023-08-06T05:25:06;7.20;58.30
81867;DHT22;71318;-36.550;-64.300;2023-08-06T05:27:33;7.20;58.60
81867;DHT22;71318;-36.550;-64.300;2023-08-06T05:29:59;7.20;58.10
81867;DHT22;71318;-36.550;-64.300;2023-08-06T05:32:26;7.40;57.30
81867;DHT22;71318;-36.550;-64.300;2023-08-06T05:34:52;7.50;56.80
81867;DHT22;71318;-36.550;-64.300;2023-08-06T05:37:19;7.50;56.40
81867;DHT22;71318;-36.550;-64.300;2023-08-06T05:39:45;7.70;56.10
81867;DHT22;71318;-36.550;-64.300;2023-08-06T05:42:11;7.40;57.20
81867;DHT22;71318;-36.550;-64.300;2023-08-06T05:44:38;7.00;58.80
81867;DHT22;71318;-36.550;-64.300;2023-08-06T05:47:04;6.70;59.80
81867;DHT22;71318;-36.550;-64.300;2023-08-06T05:49:31;6.50;61.00
81867;DHT22;71318;-36.550;-64.300;2023-08-06T05:51:57;6.40;62.00
81867;DHT22;71318;-36.550;-64.300;2023-08-06T05:54:23;6.20;63.20
81867;DHT22;71318;-36.550;-64.300;2023-08-06T05:56:50;6.00;64.20
81867;DHT22;71318;-36.550;-64.300;2023-08-06T05:59:16;5.90;64.80
81867;DHT22;71318;-36.550;-64.300;2023-08-06T06:01:42;6.00;65.10
81867;DHT22;71318;-36.550;-64.300;2023-08-06T06:04:09;6.10;64.30
81867;DHT22;71318;-36.550;-64.300;2023-08-06T06:06:35;6.20;63.70
81867;DHT22;71318;-36.550;-64.300;2023-08-06T06:09:02;6.20;63.80
81867;DHT22;71318;-36.550;-64.300;2023-08-06T06:11:28;6.10;63.90
81867;DHT22;71318;-36.550;-64.300;2023-08-06T06:13:54;6.10;64.20
81867;DHT22;71318;-36.550;-64.300;2023-08-06T06:16:21;6.10;64.60
81867;DHT22;71318;-36.550;-64.300;2023-08-06T06:18:47;6.00;64.90
81867;DHT22;71318;-36.550;-64.300;2023-08-06T06:21:14;5.90;65.20
81867;DHT22;71318;-36.550;-64.300;2023-08-06T06:23:40;5.80;65.60
81867;DHT22;71318;-36.550;-64.300;2023-08-06T06:26:06;5.70;65.70
81867;DHT22;71318;-36.550;-64.300;2023-08-06T06:28:33;5.80;66.00
81867;DHT22;71318;-36.550;-64.300;2023-08-06T06:31:02;5.70;66.70
81867;DHT22;71318;-36.550;-64.300;2023-08-06T06:33:29;5.50;67.40
81867;DHT22;71318;-36.550;-64.300;2023-08-06T06:35:55;5.40;68.00
81867;DHT22;71318;-36.550;-64.300;2023-08-06T06:38:22;5.30;68.10
81867;DHT22;71318;-36.550;-64.300;2023-08-06T06:40:55;5.20;68.10
81867;DHT22;71318;-36.550;-64.300;2023-08-06T06:43:22;5.20;68.20
81867;DHT22;71318;-36.550;-64.300;2023-08-06T06:46:09;5.30;67.80
81867;DHT22;71318;-36.550;-64.300;2023-08-06T06:48:34;5.50;67.10
81867;DHT22;71318;-36.550;-64.300;2023-08-06T06:51:01;5.50;67.20
81867;DHT22;71318;-36.550;-64.300;2023-08-06T06:53:28;5.50;67.10
81867;DHT22;71318;-36.550;-64.300;2023-08-06T06:55:55;5.60;66.30
81867;DHT22;71318;-36.550;-64.300;2023-08-06T06:58:21;5.40;66.90
81867;DHT22;71318;-36.550;-64.300;2023-08-06T07:00:48;5.40;67.50
81867;DHT22;71318;-36.550;-64.300;2023-08-06T07:03:14;5.40;67.60
81867;DHT22;71318;-36.550;-64.300;2023-08-06T07:05:41;5.30;67.40
81867;DHT22;71318;-36.550;-64.300;2023-08-06T07:08:08;5.10;67.50
81867;DHT22;71318;-36.550;-64.300;2023-08-06T07:10:34;5.00;68.10
81867;DHT22;71318;-36.550;-64.300;2023-08-06T07:13:01;4.90;69.40
81867;DHT22;71318;-36.550;-64.300;2023-08-06T07:15:27;4.80;69.90
81867;DHT22;71318;-36.550;-64.300;2023-08-06T07:17:53;4.90;70.00
81867;DHT22;71318;-36.550;-64.300;2023-08-06T07:20:20;4.80;69.90
81867;DHT22;71318;-36.550;-64.300;2023-08-06T07:22:46;4.80;70.30
81867;DHT22;71318;-36.550;-64.300;2023-08-06T07:25:12;4.80;70.10
81867;DHT22;71318;-36.550;-64.300;2023-08-06T07:27:39;4.80;70.70
81867;DHT22;71318;-36.550;-64.300;2023-08-06T07:30:05;4.90;70.20
81867;DHT22;71318;-36.550;-64.300;2023-08-06T07:32:32;5.00;70.00
81867;DHT22;71318;-36.550;-64.300;2023-08-06T07:34:58;5.20;69.70
81867;DHT22;71318;-36.550;-64.300;2023-08-06T07:37:28;5.70;67.80
81867;DHT22;71318;-36.550;-64.300;2023-08-06T07:39:55;6.10;65.90
81867;DHT22;71318;-36.550;-64.300;2023-08-06T07:42:22;6.30;64.80
81867;DHT22;71318;-36.550;-64.300;2023-08-06T07:44:52;6.30;65.00
81867;DHT22;71318;-36.550;-64.300;2023-08-06T07:47:18;6.30;65.40
81867;DHT22;71318;-36.550;-64.300;2023-08-06T07:49:45;6.20;65.40
81867;DHT22;71318;-36.550;-64.300;2023-08-06T07:52:11;6.10;66.00
81867;DHT22;71318;-36.550;-64.300;2023-08-06T07:54:38;6.30;64.20
81867;DHT22;71318;-36.550;-64.300;2023-08-06T07:57:04;6.30;64.00
81867;DHT22;71318;-36.550;-64.300;2023-08-06T07:59:30;6.40;64.30
81867;DHT22;71318;-36.550;-64.300;2023-08-06T08:01:57;6.70;62.20
81867;DHT22;71318;-36.550;-64.300;2023-08-06T08:04:24;7.30;59.90
81867;DHT22;71318;-36.550;-64.300;2023-08-06T08:06:50;7.80;58.10
81867;DHT22;71318;-36.550;-64.300;2023-08-06T08:09:17;8.10;56.80
81867;DHT22;71318;-36.550;-64.300;2023-08-06T08:11:43;8.10;56.50
81867;DHT22;71318;-36.550;-64.300;2023-08-06T08:14:10;8.10;56.30
81867;DHT22;71318;-36.550;-64.300;2023-08-06T08:16:36;7.90;56.90
81867;DHT22;71318;-36.550;-64.300;2023-08-06T08:19:03;7.50;58.20
81867;DHT22;71318;-36.550;-64.300;2023-08-06T08:21:29;7.00;60.10
81867;DHT22;71318;-36.550;-64.300;2023-08-06T08:23:56;6.80;60.50
81867;DHT22;71318;-36.550;-64.300;2023-08-06T08:26:22;6.60;61.10
81867;DHT22;71318;-36.550;-64.300;2023-08-06T08:28:49;6.40;61.60
81867;DHT22;71318;-36.550;-64.300;2023-08-06T08:31:15;6.30;62.40
81867;DHT22;71318;-36.550;-64.300;2023-08-06T08:33:42;6.10;63.00
81867;DHT22;71318;-36.550;-64.300;2023-08-06T08:36:08;6.00;62.90
81867;DHT22;71318;-36.550;-64.300;2023-08-06T08:38:35;6.00;62.80
81867;DHT22;71318;-36.550;-64.300;2023-08-06T08:41:02;6.40;61.60
81867;DHT22;71318;-36.550;-64.300;2023-08-06T08:43:28;6.70;60.60
81867;DHT22;71318;-36.550;-64.300;2023-08-06T08:45:56;7.00;59.40
81867;DHT22;71318;-36.550;-64.300;2023-08-06T08:48:26;7.20;58.20
81867;DHT22;71318;-36.550;-64.300;2023-08-06T08:50:55;7.30;58.10
81867;DHT22;71318;-36.550;-64.300;2023-08-06T08:53:21;7.30;57.90
81867;DHT22;71318;-36.550;-64.300;2023-08-06T08:55:48;7.50;57.50
81867;DHT22;71318;-36.550;-64.300;2023-08-06T08:58:15;7.30;57.50
81867;DHT22;71318;-36.550;-64.300;2023-08-06T09:00:42;7.30;57.80
81867;DHT22;71318;-36.550;-64.300;2023-08-06T09:03:08;7.20;58.20
81867;DHT22;71318;-36.550;-64.300;2023-08-06T09:05:35;7.10;58.30
81867;DHT22;71318;-36.550;-64.300;2023-08-06T09:08:02;7.00;58.80
81867;DHT22;71318;-36.550;-64.300;2023-08-06T09:10:29;6.70;59.60
81867;DHT22;71318;-36.550;-64.300;2023-08-06T09:12:56;6.70;60.20
81867;DHT22;71318;-36.550;-64.300;2023-08-06T09:15:27;6.70;60.20
81867;DHT22;71318;-36.550;-64.300;2023-08-06T09:17:53;6.70;60.30
81867;DHT22;71318;-36.550;-64.300;2023-08-06T09:20:20;6.50;60.90
81867;DHT22;71318;-36.550;-64.300;2023-08-06T09:22:47;6.50;61.30
81867;DHT22;71318;-36.550;-64.300;2023-08-06T09:25:25;6.40;61.60
81867;DHT22;71318;-36.550;-64.300;2023-08-06T09:27:52;6.40;61.70
81867;DHT22;71318;-36.550;-64.300;2023-08-06T09:30:31;6.30;62.20
81867;DHT22;71318;-36.550;-64.300;2023-08-06T09:32:58;6.20;62.10
81867;DHT22;71318;-36.550;-64.300;2023-08-06T09:35:25;5.90;63.00
81867;DHT22;71318;-36.550;-64.300;2023-08-06T09:37:51;6.00;64.20
81867;DHT22;71318;-36.550;-64.300;2023-08-06T09:40:24;6.50;61.60
81867;DHT22;71318;-36.550;-64.300;2023-08-06T09:42:52;6.60;61.30
81867;DHT22;71318;-36.550;-64.300;2023-08-06T09:45:18;6.40;61.70
81867;DHT22;71318;-36.550;-64.300;2023-08-06T09:47:45;6.40;61.80
81867;DHT22;71318;-36.550;-64.300;2023-08-06T09:50:20;6.10;63.10
81867;DHT22;71318;-36.550;-64.300;2023-08-06T09:52:47;6.00;63.80
81867;DHT22;71318;-36.550;-64.300;2023-08-06T09:55:14;5.90;64.20
81867;DHT22;71318;-36.550;-64.300;2023-08-06T09:57:41;6.10;64.10
81867;DHT22;71318;-36.550;-64.300;2023-08-06T10:00:08;6.20;63.40
81867;DHT22;71318;-36.550;-64.300;2023-08-06T10:02:39;6.20;63.20
81867;DHT22;71318;-36.550;-64.300;2023-08-06T10:05:06;6.20;63.80
81867;DHT22;71318;-36.550;-64.300;2023-08-06T10:07:33;6.20;63.90
81867;DHT22;71318;-36.550;-64.300;2023-08-06T10:10:00;6.10;63.70
81867;DHT22;71318;-36.550;-64.300;2023-08-06T10:12:28;5.90;64.70
81867;DHT22;71318;-36.550;-64.300;2023-08-06T10:14:55;5.90;65.30
81867;DHT22;71318;-36.550;-64.300;2023-08-06T10:17:23;5.80;66.00
81867;DHT22;71318;-36.550;-64.300;2023-08-06T10:19:50;5.70;66.10
81867;DHT22;71318;-36.550;-64.300;2023-08-06T10:22:17;5.70;66.20
81867;DHT22;71318;-36.550;-64.300;2023-08-06T10:24:53;5.50;66.60
81867;DHT22;71318;-36.550;-64.300;2023-08-06T10:27:21;5.30;67.60
81867;DHT22;71318;-36.550;-64.300;2023-08-06T10:29:47;5.30;67.20
81867;DHT22;71318;-36.550;-64.300;2023-08-06T10:32:15;5.20;68.20
81867;DHT22;71318;-36.550;-64.300;2023-08-06T10:34:54;5.10;68.00
81867;DHT22;71318;-36.550;-64.300;2023-08-06T10:37:25;5.20;69.20
81867;DHT22;71318;-36.550;-64.300;2023-08-06T10:40:00;5.40;69.60
81867;DHT22;71318;-36.550;-64.300;2023-08-06T10:42:27;5.40;69.70
81867;DHT22;71318;-36.550;-64.300;2023-08-06T10:47:39;5.60;69.40
81867;DHT22;71318;-36.550;-64.300;2023-08-06T10:50:10;5.80;69.20
81867;DHT22;71318;-36.550;-64.300;2023-08-06T10:52:37;5.80;69.70
81867;DHT22;71318;-36.550;-64.300;2023-08-06T10:55:04;5.90;69.00
81867;DHT22;71318;-36.550;-64.300;2023-08-06T10:57:30;6.00;69.40
81867;DHT22;71318;-36.550;-64.300;2023-08-06T10:59:57;6.00;69.20
81867;DHT22;71318;-36.550;-64.300;2023-08-06T11:02:23;6.00;69.70
81867;DHT22;71318;-36.550;-64.300;2023-08-06T11:04:49;6.10;70.00
81867;DHT22;71318;-36.550;-64.300;2023-08-06T11:07:16;6.00;69.50
81867;DHT22;71318;-36.550;-64.300;2023-08-06T11:09:43;6.10;71.00
81867;DHT22;71318;-36.550;-64.300;2023-08-06T11:12:09;6.30;71.00
81867;DHT22;71318;-36.550;-64.300;2023-08-06T11:14:36;6.50;70.30
81867;DHT22;71318;-36.550;-64.300;2023-08-06T11:17:04;6.50;69.70
81867;DHT22;71318;-36.550;-64.300;2023-08-06T11:19:31;6.30;69.60
81867;DHT22;71318;-36.550;-64.300;2023-08-06T11:21:58;5.90;70.90
81867;DHT22;71318;-36.550;-64.300;2023-08-06T11:24:25;5.90;71.80
81867;DHT22;71318;-36.550;-64.300;2023-08-06T11:26:52;6.30;70.30
81867;DHT22;71318;-36.550;-64.300;2023-08-06T11:29:18;6.50;68.60
81867;DHT22;71318;-36.550;-64.300;2023-08-06T11:31:44;6.60;67.80
81867;DHT22;71318;-36.550;-64.300;2023-08-06T11:34:11;6.60;66.20
81867;DHT22;71318;-36.550;-64.300;2023-08-06T11:36:40;6.70;66.00
81867;DHT22;71318;-36.550;-64.300;2023-08-06T11:39:06;6.80;65.00
81867;DHT22;71318;-36.550;-64.300;2023-08-06T11:41:33;6.80;63.70
81867;DHT22;71318;-36.550;-64.300;2023-08-06T11:43:59;6.90;63.40
81867;DHT22;71318;-36.550;-64.300;2023-08-06T11:46:26;7.00;62.40
81867;DHT22;71318;-36.550;-64.300;2023-08-06T11:48:52;7.00;61.60
81867;DHT22;71318;-36.550;-64.300;2023-08-06T11:51:22;7.00;61.90
81867;DHT22;71318;-36.550;-64.300;2023-08-06T11:53:48;7.10;60.00
81867;DHT22;71318;-36.550;-64.300;2023-08-06T11:56:16;7.10;59.90
81867;DHT22;71318;-36.550;-64.300;2023-08-06T11:58:42;7.20;58.30
81867;DHT22;71318;-36.550;-64.300;2023-08-06T12:01:09;7.30;58.00
81867;DHT22;71318;-36.550;-64.300;2023-08-06T12:03:41;7.40;57.80
81867;DHT22;71318;-36.550;-64.300;2023-08-06T12:06:07;7.40;57.40
81867;DHT22;71318;-36.550;-64.300;2023-08-06T12:08:34;7.60;56.60
81867;DHT22;71318;-36.550;-64.300;2023-08-06T12:11:00;7.70;55.90
81867;DHT22;71318;-36.550;-64.300;2023-08-06T12:13:27;7.90;55.10
81867;DHT22;71318;-36.550;-64.300;2023-08-06T12:15:54;7.90;54.30
81867;DHT22;71318;-36.550;-64.300;2023-08-06T12:18:22;8.00;55.20
81867;DHT22;71318;-36.550;-64.300;2023-08-06T12:20:49;8.10;54.00
81867;DHT22;71318;-36.550;-64.300;2023-08-06T12:23:16;8.20;53.90
81867;DHT22;71318;-36.550;-64.300;2023-08-06T12:25:43;8.30;51.90
81867;DHT22;71318;-36.550;-64.300;2023-08-06T12:28:10;8.30;52.70
81867;DHT22;71318;-36.550;-64.300;2023-08-06T12:30:38;8.50;52.00
81867;DHT22;71318;-36.550;-64.300;2023-08-06T12:33:07;8.70;51.30
81867;DHT22;71318;-36.550;-64.300;2023-08-06T12:35:34;8.90;51.60
81867;DHT22;71318;-36.550;-64.300;2023-08-06T12:38:00;9.20;49.00
81867;DHT22;71318;-36.550;-64.300;2023-08-06T12:40:26;9.40;48.70
81867;DHT22;71318;-36.550;-64.300;2023-08-06T12:42:53;9.60;46.90
81867;DHT22;71318;-36.550;-64.300;2023-08-06T12:45:19;9.80;46.00
81867;DHT22;71318;-36.550;-64.300;2023-08-06T12:47:49;9.90;44.10
81867;DHT22;71318;-36.550;-64.300;2023-08-06T12:50:15;10.10;44.00
81867;DHT22;71318;-36.550;-64.300;2023-08-06T12:52:42;10.30;43.50
81867;DHT22;71318;-36.550;-64.300;2023-08-06T12:55:09;10.50;42.30
81867;DHT22;71318;-36.550;-64.300;2023-08-06T12:57:35;10.50;41.00
81867;DHT22;71318;-36.550;-64.300;2023-08-06T13:00:02;10.70;40.20
81867;DHT22;71318;-36.550;-64.300;2023-08-06T13:02:29;10.80;40.30
81867;DHT22;71318;-36.550;-64.300;2023-08-06T13:04:56;10.80;39.50
81867;DHT22;71318;-36.550;-64.300;2023-08-06T13:07:22;10.90;39.70
81867;DHT22;71318;-36.550;-64.300;2023-08-06T13:09:49;10.90;39.10
81867;DHT22;71318;-36.550;-64.300;2023-08-06T13:12:15;11.20;38.60
81867;DHT22;71318;-36.550;-64.300;2023-08-06T13:14:44;11.50;38.80
81867;DHT22;71318;-36.550;-64.300;2023-08-06T13:17:11;11.80;38.20
81867;DHT22;71318;-36.550;-64.300;2023-08-06T13:19:37;12.20;39.90
81867;DHT22;71318;-36.550;-64.300;2023-08-06T13:22:04;12.30;36.90
81867;DHT22;71318;-36.550;-64.300;2023-08-06T13:24:32;12.40;35.60
81867;DHT22;71318;-36.550;-64.300;2023-08-06T13:26:59;12.50;35.60
81867;DHT22;71318;-36.550;-64.300;2023-08-06T13:29:25;12.70;36.00
81867;DHT22;71318;-36.550;-64.300;2023-08-06T13:31:53;13.00;35.20
81867;DHT22;71318;-36.550;-64.300;2023-08-06T13:34:19;12.90;33.60
81867;DHT22;71318;-36.550;-64.300;2023-08-06T13:36:45;13.00;34.00
81867;DHT22;71318;-36.550;-64.300;2023-08-06T13:39:12;13.20;31.10
81867;DHT22;71318;-36.550;-64.300;2023-08-06T13:41:42;13.50;35.60
81867;DHT22;71318;-36.550;-64.300;2023-08-06T13:44:08;13.80;32.80
81867;DHT22;71318;-36.550;-64.300;2023-08-06T13:46:35;14.10;31.70
81867;DHT22;71318;-36.550;-64.300;2023-08-06T13:49:01;14.40;31.50
81867;DHT22;71318;-36.550;-64.300;2023-08-06T13:51:28;14.40;30.30
81867;DHT22;71318;-36.550;-64.300;2023-08-06T13:53:54;14.50;29.70
81867;DHT22;71318;-36.550;-64.300;2023-08-06T13:56:22;14.90;30.90
81867;DHT22;71318;-36.550;-64.300;2023-08-06T13:58:49;15.30;26.40
81867;DHT22;71318;-36.550;-64.300;2023-08-06T14:01:16;15.40;23.90
81867;DHT22;71318;-36.550;-64.300;2023-08-06T14:03:44;15.60;24.60
81867;DHT22;71318;-36.550;-64.300;2023-08-06T14:06:10;15.70;23.40
81867;DHT22;71318;-36.550;-64.300;2023-08-06T14:08:37;15.70;23.30
81867;DHT22;71318;-36.550;-64.300;2023-08-06T14:11:03;15.70;23.10
81867;DHT22;71318;-36.550;-64.300;2023-08-06T14:13:30;15.90;25.40
81867;DHT22;71318;-36.550;-64.300;2023-08-06T14:15:57;16.10;22.70
81867;DHT22;71318;-36.550;-64.300;2023-08-06T14:18:23;16.20;24.30
81867;DHT22;71318;-36.550;-64.300;2023-08-06T14:20:52;16.40;23.20
81867;DHT22;71318;-36.550;-64.300;2023-08-06T14:23:19;16.60;22.60
81867;DHT22;71318;-36.550;-64.300;2023-08-06T14:25:45;16.90;20.70
81867;DHT22;71318;-36.550;-64.300;2023-08-06T14:28:12;17.00;20.50
81867;DHT22;71318;-36.550;-64.300;2023-08-06T14:30:38;16.90;20.80
81867;DHT22;71318;-36.550;-64.300;2023-08-06T14:33:04;17.30;21.10
81867;DHT22;71318;-36.550;-64.300;2023-08-06T14:35:31;17.50;21.90
81867;DHT22;71318;-36.550;-64.300;2023-08-06T14:37:57;17.70;21.20
81867;DHT22;71318;-36.550;-64.300;2023-08-06T14:40:23;18.00;21.50
81867;DHT22;71318;-36.550;-64.300;2023-08-06T14:42:55;17.90;20.50
81867;DHT22;71318;-36.550;-64.300;2023-08-06T14:45:24;17.60;19.00
81867;DHT22;71318;-36.550;-64.300;2023-08-06T14:47:50;18.00;18.10
81867;DHT22;71318;-36.550;-64.300;2023-08-06T14:50:17;17.60;17.50
81867;DHT22;71318;-36.550;-64.300;2023-08-06T14:52:43;18.00;19.30
81867;DHT22;71318;-36.550;-64.300;2023-08-06T14:55:09;18.50;19.20
81867;DHT22;71318;-36.550;-64.300;2023-08-06T14:57:36;18.70;17.10
81867;DHT22;71318;-36.550;-64.300;2023-08-06T15:00:02;18.80;17.60
81867;DHT22;71318;-36.550;-64.300;2023-08-06T15:02:41;18.60;16.90
81867;DHT22;71318;-36.550;-64.300;2023-08-06T15:05:10;18.60;17.10